createdAt,value
2018-04-17T00:00:20.417Z,100945.50
2018-04-17T00:02:49.746Z,100950.40
2018-04-17T00:05:19.853Z,100950.87
2018-04-17T00:07:49.204Z,100950.77
2018-04-17T00:10:18.525Z,100951.87
2018-04-17T00:12:47.866Z,100950.05
2018-04-17T00:15:17.960Z,100957.01
2018-04-17T00:17:47.300Z,100961.20
2018-04-17T00:20:17.413Z,100958.20
2018-04-17T00:22:47.296Z,100959.16
2018-04-17T00:25:16.619Z,100963.27
2018-04-17T00:27:45.965Z,100961.16
2018-04-17T00:30:15.283Z,100965.11
2018-04-17T00:32:44.611Z,100963.88
2018-04-17T00:35:13.960Z,100960.45
2018-04-17T00:37:43.295Z,100962.30
2018-04-17T00:40:12.606Z,100961.21
2018-04-17T00:42:41.960Z,100964.88
2018-04-17T00:45:12.108Z,100970.78
2018-04-17T00:47:42.159Z,100967.02
2018-04-17T00:50:11.494Z,100966.83
2018-04-17T00:52:41.619Z,100966.18
2018-04-17T00:55:11.713Z,100977.83
2018-04-17T00:57:41.032Z,100980.05
2018-04-17T01:00:10.366Z,100983.56
2018-04-17T01:02:39.687Z,100980.10
2018-04-17T01:05:09.020Z,100981.96
2018-04-17T01:07:38.331Z,100989.58
2018-04-17T01:10:07.660Z,100988.02
2018-04-17T01:12:38.502Z,100989.80
2018-04-17T01:15:08.589Z,100982.92
2018-04-17T01:17:37.924Z,100988.27
2018-04-17T01:20:07.992Z,100990.83
2018-04-17T01:22:37.303Z,100992.86
2018-04-17T01:25:06.635Z,101002.60
2018-04-17T01:27:35.943Z,101002.69
2018-04-17T01:30:05.239Z,101005.45
2018-04-17T01:32:34.563Z,101010.38
2018-04-17T01:35:04.669Z,101010.01
2018-04-17T01:37:33.967Z,101009.55
2018-04-17T01:40:04.053Z,101013.22
2018-04-17T01:42:33.384Z,101009.27
2018-04-17T01:45:02.707Z,101013.73
2018-04-17T01:47:32.816Z,101014.66
2018-04-17T01:50:02.135Z,101014.33
2018-04-17T01:52:31.465Z,101013.13
2018-04-17T01:55:00.817Z,101015.53
2018-04-17T01:57:30.132Z,101023.93
2018-04-17T02:00:00.223Z,101014.78
2018-04-17T02:02:29.534Z,101023.20
2018-04-17T02:04:58.859Z,101024.20
2018-04-17T02:07:28.943Z,101032.48
2018-04-17T02:09:58.243Z,101028.52
2018-04-17T02:12:27.572Z,101039.19
2018-04-17T02:14:56.875Z,101035.82
2018-04-17T02:17:26.189Z,101033.69
2018-04-17T02:19:55.512Z,101037.72
2018-04-17T02:22:25.011Z,101042.17
2018-04-17T02:24:55.079Z,101040.92
2018-04-17T02:27:24.409Z,101041.85
2018-04-17T02:29:53.705Z,101046.31
2018-04-17T02:32:23.157Z,101050.27
2018-04-17T02:34:52.478Z,101046.38
2018-04-17T02:37:21.802Z,101051.64
2018-04-17T02:39:51.105Z,101050.33
2018-04-17T02:42:20.409Z,101055.54
2018-04-17T02:44:49.722Z,101049.88
2018-04-17T02:47:19.026Z,101055.23
2018-04-17T02:49:48.335Z,101057.42
2018-04-17T02:52:17.647Z,101059.17
2018-04-17T02:54:47.728Z,101061.85
2018-04-17T02:57:18.054Z,101060.19
2018-04-17T02:59:47.347Z,101060.36
2018-04-17T03:02:16.774Z,101067.95
2018-04-17T03:04:46.076Z,101069.84
2018-04-17T03:07:15.412Z,101070.23
2018-04-17T03:09:45.505Z,101062.02
2018-04-17T03:12:14.790Z,101066.91
2018-04-17T03:14:44.103Z,101068.28
2018-04-17T03:17:13.425Z,101061.77
2018-04-17T03:19:42.746Z,101064.02
2018-04-17T03:22:12.822Z,101060.00
2018-04-17T03:24:42.136Z,101058.70
2018-04-17T03:27:11.427Z,101064.38
2018-04-17T03:29:40.762Z,101063.09
2018-04-17T03:32:10.845Z,101062.15
2018-04-17T03:34:40.154Z,101056.92
2018-04-17T03:37:09.475Z,101063.44
2018-04-17T03:39:38.824Z,101063.78
2018-04-17T03:42:08.119Z,101058.45
2018-04-17T03:44:37.438Z,101054.50
2018-04-17T03:47:06.743Z,101057.12
2018-04-17T03:49:36.038Z,101057.68
2018-04-17T03:52:05.358Z,101052.80
2018-04-17T03:54:34.662Z,101052.56
2018-04-17T03:57:04.848Z,101056.12
2018-04-17T03:59:34.171Z,101054.93
2018-04-17T04:02:03.494Z,101057.62
2018-04-17T04:04:32.488Z,101052.50
2018-04-17T04:07:01.496Z,101060.27
2018-04-17T04:09:30.486Z,101058.93
2018-04-17T04:11:59.503Z,101066.41
2018-04-17T04:14:28.515Z,101067.33
2018-04-17T04:17:16.149Z,101069.21
2018-04-17T04:20:03.674Z,101073.16
2018-04-17T04:26:12.961Z,101075.09
2018-04-17T04:28:42.005Z,101074.11
2018-04-17T04:31:11.022Z,101075.92
2018-04-17T04:33:40.776Z,101072.92
2018-04-17T04:36:10.086Z,101082.19
2018-04-17T04:38:39.094Z,101082.92
2018-04-17T04:41:08.399Z,101079.98
2018-04-17T04:43:37.751Z,101085.69
2018-04-17T04:46:06.743Z,101087.17
2018-04-17T04:48:36.067Z,101091.39
2018-04-17T04:51:05.077Z,101095.32
2018-04-17T04:53:34.058Z,101096.78
2018-04-17T04:56:03.382Z,101094.02
2018-04-17T04:58:32.433Z,101094.01
2018-04-17T05:01:02.190Z,101100.08
2018-04-17T05:03:31.521Z,101103.48
2018-04-17T05:06:00.548Z,101110.86
2018-04-17T05:08:29.863Z,101117.83
2018-04-17T05:10:59.185Z,101109.73
2018-04-17T05:13:28.190Z,101111.53
2018-04-17T05:15:57.214Z,101122.63
2018-04-17T05:18:27.301Z,101125.70
2018-04-17T05:20:56.633Z,101131.10
2018-04-17T05:23:25.667Z,101144.58
2018-04-17T05:25:54.997Z,101145.87
2018-04-17T05:28:24.318Z,101155.78
2018-04-17T05:30:53.355Z,101159.86
2018-04-17T05:33:23.140Z,101163.95
2018-04-17T05:35:52.117Z,101170.70
2018-04-17T05:38:21.110Z,101172.87
2018-04-17T05:40:50.451Z,101180.00
2018-04-17T05:43:20.526Z,101187.62
2018-04-17T05:45:49.526Z,101188.69
2018-04-17T05:48:18.526Z,101193.75
2018-04-17T05:50:47.545Z,101200.06
2018-04-17T05:53:16.573Z,101200.23
2018-04-17T05:55:45.920Z,101208.69
2018-04-17T05:58:15.110Z,101216.59
2018-04-17T06:00:44.442Z,101213.69
2018-04-17T06:03:13.814Z,101215.32
2018-04-17T06:05:42.815Z,101222.85
2018-04-17T06:08:11.817Z,101229.67
2018-04-17T06:10:41.157Z,101224.03
2018-04-17T06:13:11.239Z,101228.55
2018-04-17T06:15:40.268Z,101227.80
2018-04-17T06:18:09.258Z,101230.16
2018-04-17T06:20:39.032Z,101230.66
2018-04-17T06:23:08.383Z,101238.27
2018-04-17T06:25:38.470Z,101242.09
2018-04-17T06:28:07.807Z,101243.63
2018-04-17T06:30:37.880Z,101248.91
2018-04-17T06:33:07.200Z,101246.05
2018-04-17T06:35:36.218Z,101247.83
2018-04-17T06:38:06.043Z,101245.80
2018-04-17T06:40:36.124Z,101238.57
2018-04-17T06:43:05.429Z,101242.47
2018-04-17T06:45:34.448Z,101236.03
2018-04-17T06:48:03.436Z,101239.61
2018-04-17T06:50:32.759Z,101234.28
2018-04-17T06:53:02.564Z,101242.09
2018-04-17T06:55:31.546Z,101242.22
2018-04-17T06:58:00.600Z,101246.78
2018-04-17T07:00:30.331Z,101252.78
2018-04-17T07:02:59.317Z,101250.28
2018-04-17T07:05:28.326Z,101262.16
2018-04-17T07:07:57.343Z,101260.66
2018-04-17T07:10:26.376Z,101265.34
2018-04-17T07:12:55.699Z,101264.28
2018-04-17T07:15:25.001Z,101266.67
2018-04-17T07:17:54.014Z,101266.78
2018-04-17T07:20:23.346Z,101268.30
2018-04-17T07:22:52.342Z,101272.45
2018-04-17T07:25:21.337Z,101270.59
2018-04-17T07:27:51.129Z,101268.92
2018-04-17T07:30:20.466Z,101271.74
2018-04-17T07:32:50.227Z,101274.71
2018-04-17T07:35:19.229Z,101273.37
2018-04-17T07:37:48.239Z,101277.09
2018-04-17T07:40:17.253Z,101280.27
2018-04-17T07:42:47.027Z,101281.50
2018-04-17T07:45:16.028Z,101280.75
2018-04-17T07:48:00.544Z,101292.09
2018-04-17T07:50:29.541Z,101289.97
2018-04-17T07:52:58.535Z,101291.62
2018-04-17T07:55:27.545Z,101289.00
2018-04-17T07:57:56.855Z,101297.58
2018-04-17T08:00:26.183Z,101300.79
2018-04-17T08:02:55.174Z,101310.59
2018-04-17T08:05:24.169Z,101312.34
2018-04-17T08:07:53.986Z,101316.58
2018-04-17T08:10:23.406Z,101313.14
2018-04-17T08:12:52.406Z,101309.49
2018-04-17T08:15:21.758Z,101306.20
2018-04-17T08:17:50.768Z,101306.24
2018-04-17T08:20:19.749Z,101309.06
2018-04-17T08:22:48.788Z,101306.65
2018-04-17T08:25:17.778Z,101313.05
2018-04-17T08:27:46.801Z,101320.44
2018-04-17T08:30:16.879Z,101317.89
2018-04-17T08:32:45.891Z,101319.81
2018-04-17T08:35:15.208Z,101319.52
2018-04-17T08:37:44.218Z,101319.42
2018-04-17T08:40:14.027Z,101309.59
2018-04-17T08:42:43.810Z,101313.95
2018-04-17T08:45:13.111Z,101307.03
2018-04-17T08:47:42.121Z,101308.23
2018-04-17T08:50:11.116Z,101310.42
2018-04-17T08:52:40.126Z,101312.97
2018-04-17T08:55:09.905Z,101314.91
2018-04-17T08:57:39.232Z,101309.97
2018-04-17T09:00:08.255Z,101307.99
2018-04-17T09:02:37.270Z,101311.25
2018-04-17T09:05:06.268Z,101310.95
2018-04-17T09:07:35.262Z,101304.77
2018-04-17T09:10:04.278Z,101299.66
2018-04-17T09:12:33.276Z,101297.91
2018-04-17T09:15:02.612Z,101296.49
2018-04-17T09:17:31.607Z,101302.24
2018-04-17T09:20:01.359Z,101315.27
2018-04-17T09:22:30.396Z,101310.59
2018-04-17T09:24:59.401Z,101313.44
2018-04-17T09:27:28.401Z,101305.91
2018-04-17T09:29:57.415Z,101305.69
2018-04-17T09:32:27.177Z,101304.39
2018-04-17T09:34:56.507Z,101301.31
2018-04-17T09:37:25.514Z,101311.63
2018-04-17T09:39:55.289Z,101312.48
2018-04-17T09:42:24.290Z,101306.39
2018-04-17T09:44:53.292Z,101299.18
2018-04-17T09:47:22.291Z,101306.12
2018-04-17T09:49:51.279Z,101304.80
2018-04-17T09:52:20.287Z,101305.23
2018-04-17T09:54:49.291Z,101315.37
2018-04-17T09:57:19.068Z,101299.34
2018-04-17T09:59:48.060Z,101303.39
2018-04-17T10:02:17.409Z,101312.42
2018-04-17T10:04:47.155Z,101306.92
2018-04-17T10:07:16.165Z,101308.87
2018-04-17T10:09:45.204Z,101303.52
2018-04-17T10:12:14.198Z,101310.94
2018-04-17T10:14:43.198Z,101312.77
2018-04-17T10:17:13.379Z,101310.33
2018-04-17T10:19:42.398Z,101312.53
2018-04-17T10:22:11.392Z,101298.37
2018-04-17T10:24:40.410Z,101303.66
2018-04-17T10:27:10.188Z,101300.00
2018-04-17T10:29:39.206Z,101292.55
2018-04-17T10:32:08.205Z,101295.41
2018-04-17T10:34:37.238Z,101294.72
2018-04-17T10:37:06.253Z,101295.59
2018-04-17T10:39:35.272Z,101290.59
2018-04-17T10:42:04.270Z,101296.13
2018-04-17T10:44:33.286Z,101296.11
2018-04-17T10:47:02.282Z,101282.39
2018-04-17T10:49:32.060Z,101289.73
2018-04-17T10:52:01.066Z,101279.75
2018-04-17T10:54:30.050Z,101277.45
2018-04-17T10:56:59.062Z,101281.63
2018-04-17T10:59:28.090Z,101273.13
2018-04-17T11:01:57.864Z,101274.44
2018-04-17T11:04:26.875Z,101275.45
2018-04-17T11:06:55.867Z,101270.98
2018-04-17T11:09:24.878Z,101264.37
2018-04-17T11:11:54.651Z,101270.64
2018-04-17T11:14:23.651Z,101270.68
2018-04-17T11:16:52.670Z,101272.80
2018-04-17T11:19:21.699Z,101266.45
2018-04-17T11:21:50.721Z,101269.98
2018-04-17T11:24:19.729Z,101267.91
2018-04-17T11:26:48.716Z,101265.85
2018-04-17T11:29:17.742Z,101260.81
2018-04-17T11:31:46.722Z,101266.83
2018-04-17T11:34:16.032Z,101272.94
2018-04-17T11:36:45.039Z,101271.46
2018-04-17T11:39:14.055Z,101267.08
2018-04-17T11:41:43.805Z,101261.73
2018-04-17T11:44:12.803Z,101266.37
2018-04-17T11:46:41.810Z,101263.52
2018-04-17T11:49:10.805Z,101264.29
2018-04-17T11:51:39.842Z,101261.66
2018-04-17T11:54:09.591Z,101259.70
2018-04-17T11:56:38.887Z,101251.42
2018-04-17T11:59:07.916Z,101256.83
2018-04-17T12:01:36.926Z,101253.70
2018-04-17T12:04:06.246Z,101261.33
2018-04-17T12:06:36.017Z,101255.48
2018-04-17T12:09:05.774Z,101257.56
2018-04-17T12:11:35.532Z,101257.61
2018-04-17T12:14:04.537Z,101262.55
2018-04-17T12:16:33.542Z,101263.06
2018-04-17T12:19:02.565Z,101262.52
2018-04-17T12:21:31.559Z,101254.52
2018-04-17T12:24:01.656Z,101257.09
2018-04-17T12:26:30.647Z,101257.50
2018-04-17T12:28:59.634Z,101249.59
2018-04-17T12:31:28.661Z,101247.72
2018-04-17T12:33:57.654Z,101243.71
2018-04-17T12:36:26.657Z,101240.31
2018-04-17T12:38:56.440Z,101245.66
2018-04-17T12:41:25.449Z,101246.05
2018-04-17T12:43:54.458Z,101257.19
2018-04-17T12:46:24.228Z,101259.11
2018-04-17T12:48:53.230Z,101251.16
2018-04-17T12:51:22.254Z,101245.23
2018-04-17T12:53:51.256Z,101242.33
2018-04-17T12:56:21.014Z,101244.17
2018-04-17T12:58:50.401Z,101239.70
2018-04-17T13:01:19.936Z,101253.13
2018-04-17T13:03:48.937Z,101239.69
2018-04-17T13:06:17.955Z,101235.14
2018-04-17T13:08:46.981Z,101242.16
2018-04-17T13:11:16.739Z,101243.30
2018-04-17T13:13:45.717Z,101230.45
2018-04-17T13:16:14.758Z,101234.94
2018-04-17T13:18:43.757Z,101229.41
2018-04-17T13:21:12.748Z,101236.09
2018-04-17T13:23:41.753Z,101231.27
2018-04-17T13:26:10.768Z,101226.61
2018-04-17T13:28:40.534Z,101224.29
2018-04-17T13:31:09.527Z,101229.73
2018-04-17T13:33:38.561Z,101227.39
2018-04-17T13:36:09.106Z,101219.45
2018-04-17T13:38:38.138Z,101214.11
2018-04-17T13:41:07.453Z,101217.27
2018-04-17T13:43:36.475Z,101212.92
2018-04-17T13:46:05.483Z,101208.97
2018-04-17T13:48:35.236Z,101204.33
2018-04-17T13:51:05.053Z,101211.88
2018-04-17T13:53:34.780Z,101217.74
2018-04-17T13:56:03.783Z,101211.22
2018-04-17T13:58:32.803Z,101219.11
2018-04-17T14:01:02.554Z,101211.14
2018-04-17T14:03:31.546Z,101207.52
2018-04-17T14:06:00.555Z,101210.25
2018-04-17T14:08:29.579Z,101207.75
2018-04-17T14:10:58.570Z,101204.33
2018-04-17T14:13:27.580Z,101212.05
2018-04-17T14:15:56.589Z,101207.91
2018-04-17T14:18:25.578Z,101203.96
2018-04-17T14:20:55.363Z,101207.89
2018-04-17T14:23:24.370Z,101205.09
2018-04-17T14:25:53.681Z,101205.86
2018-04-17T14:28:22.666Z,101209.41
2018-04-17T14:30:52.589Z,101213.63
2018-04-17T14:33:21.576Z,101218.47
2018-04-17T14:35:50.566Z,101219.98
2018-04-17T14:38:19.607Z,101228.58
2018-04-17T14:40:49.350Z,101229.28
2018-04-17T14:43:18.383Z,101229.82
2018-04-17T14:45:47.394Z,101228.34
2018-04-17T14:48:17.485Z,101225.89
2018-04-17T14:50:46.478Z,101220.48
2018-04-17T14:53:15.466Z,101228.38
2018-04-17T14:55:44.506Z,101227.25
2018-04-17T14:58:14.250Z,101232.78
2018-04-17T15:00:43.275Z,101229.89
2018-04-17T15:03:12.266Z,101234.84
2018-04-17T15:05:41.252Z,101228.02
2018-04-17T15:08:10.271Z,101219.71
2018-04-17T15:10:39.306Z,101225.89
2018-04-17T15:13:09.051Z,101228.39
2018-04-17T15:15:38.354Z,101227.18
2018-04-17T15:18:07.373Z,101230.53
2018-04-17T15:20:36.369Z,101223.66
2018-04-17T15:23:05.386Z,101233.02
2018-04-17T15:25:34.383Z,101226.72
2018-04-17T15:28:04.173Z,101229.44
2018-04-17T15:30:33.196Z,101228.58
2018-04-17T15:33:02.942Z,101225.67
2018-04-17T15:35:31.954Z,101232.23
2018-04-17T15:38:00.980Z,101235.01
2018-04-17T15:40:30.306Z,101235.23
2018-04-17T15:43:00.382Z,101220.66
2018-04-17T15:45:29.717Z,101225.34
2018-04-17T15:50:33.150Z,101222.18
2018-04-17T15:53:02.905Z,101222.28
2018-04-17T15:55:32.222Z,101228.03
2018-04-17T15:58:01.560Z,101223.77
2018-04-17T16:00:31.380Z,101221.75
2018-04-17T16:03:00.371Z,101217.20
2018-04-17T16:05:30.230Z,101224.23
2018-04-17T16:07:59.215Z,101226.17
2018-04-17T16:10:28.211Z,101221.62
2018-04-17T16:12:57.563Z,101224.59
2018-04-17T16:15:26.646Z,101229.08
2018-04-17T16:17:55.647Z,101228.17
2018-04-17T16:20:24.706Z,101225.91
2018-04-17T16:22:53.710Z,101229.19
2018-04-17T16:25:22.719Z,101231.45
2018-04-17T16:27:51.732Z,101240.14
2018-04-17T16:30:20.731Z,101239.45
2018-04-17T16:32:49.758Z,101248.18
2018-04-17T16:35:19.505Z,101243.36
2018-04-17T16:37:48.540Z,101246.02
2018-04-17T16:40:17.562Z,101254.84
2018-04-17T16:42:47.321Z,101253.30
2018-04-17T16:45:16.328Z,101259.97
2018-04-17T16:47:45.351Z,101259.57
2018-04-17T16:50:15.119Z,101264.80
2018-04-17T16:52:44.429Z,101264.19
2018-04-17T16:55:13.461Z,101263.71
2018-04-17T16:57:43.238Z,101267.89
2018-04-17T17:00:18.471Z,101271.08
2018-04-17T17:02:47.572Z,101275.45
2018-04-17T17:05:16.874Z,101277.56
2018-04-17T17:07:46.215Z,101285.97
2018-04-17T17:10:16.330Z,101282.90
2018-04-17T17:12:46.406Z,101285.48
2018-04-17T17:15:15.737Z,101289.91
2018-04-17T17:17:45.077Z,101287.31
2018-04-17T17:20:15.143Z,101298.89
2018-04-17T17:22:44.514Z,101293.22
2018-04-17T17:25:13.881Z,101299.54
2018-04-17T17:27:43.207Z,101301.37
2018-04-17T17:30:12.557Z,101294.53
2018-04-17T17:32:41.900Z,101298.32
2018-04-17T17:35:11.984Z,101299.98
2018-04-17T17:37:41.321Z,101295.80
2018-04-17T17:40:11.458Z,101298.47
2018-04-17T17:42:41.542Z,101304.70
2018-04-17T17:45:10.871Z,101301.11
2018-04-17T17:47:40.954Z,101304.23
2018-04-17T17:50:10.273Z,101311.48
2018-04-17T17:52:39.601Z,101314.77
2018-04-17T17:55:09.691Z,101319.86
2018-04-17T17:57:39.081Z,101316.02
2018-04-17T18:00:08.825Z,101310.45
2018-04-17T18:02:38.975Z,101310.38
2018-04-17T18:05:08.329Z,101315.37
2018-04-17T18:07:38.473Z,101321.09
2018-04-17T18:10:08.572Z,101319.41
2018-04-17T18:12:37.945Z,101322.88
2018-04-17T18:15:07.297Z,101325.55
2018-04-17T18:17:36.605Z,101332.34
2018-04-17T18:20:06.724Z,101330.50
2018-04-17T18:22:36.249Z,101336.55
2018-04-17T18:25:08.747Z,101338.87
2018-04-17T18:27:38.552Z,101337.41
2018-04-17T18:30:07.887Z,101347.45
2018-04-17T18:32:37.419Z,101349.45
2018-04-17T18:35:06.764Z,101349.17
2018-04-17T18:37:36.101Z,101348.71
2018-04-17T18:40:05.413Z,101360.00
2018-04-17T18:42:34.757Z,101360.61
2018-04-17T18:45:04.875Z,101361.88
2018-04-17T18:47:34.955Z,101366.22
2018-04-17T18:50:04.314Z,101363.42
2018-04-17T18:52:33.628Z,101363.97
2018-04-17T18:55:02.949Z,101367.00
2018-04-17T18:57:32.274Z,101376.80
2018-04-17T19:00:01.611Z,101376.55
2018-04-17T19:02:31.599Z,101380.23
2018-04-17T19:05:00.923Z,101383.56
2018-04-17T19:07:31.015Z,101382.83
2018-04-17T19:10:00.340Z,101386.87
2018-04-17T19:12:30.439Z,101390.06
2018-04-17T19:14:59.780Z,101394.62
2018-04-17T19:17:29.855Z,101398.65
2018-04-17T19:19:59.237Z,101404.97
2018-04-17T19:22:28.556Z,101403.32
2018-04-17T19:24:57.864Z,101406.93
2018-04-17T19:27:27.196Z,101411.98
2018-04-17T19:29:57.275Z,101415.40
2018-04-17T19:32:26.593Z,101412.84
2018-04-17T19:34:55.950Z,101421.86
2018-04-17T19:37:25.259Z,101416.50
2018-04-17T19:39:54.597Z,101422.27
2018-04-17T19:42:23.924Z,101422.83
2018-04-17T19:44:53.259Z,101425.47
2018-04-17T19:47:22.570Z,101426.99
2018-04-17T19:49:51.915Z,101429.41
2018-04-17T19:52:21.256Z,101435.52
2018-04-17T19:54:51.336Z,101436.08
2018-04-17T19:57:20.651Z,101435.82
2018-04-17T19:59:49.990Z,101445.33
2018-04-17T20:02:20.056Z,101443.20
2018-04-17T20:04:49.807Z,101445.50
2018-04-17T20:07:19.919Z,101449.89
2018-04-17T20:09:49.225Z,101445.62
2018-04-17T20:12:19.323Z,101451.64
2018-04-17T20:14:48.646Z,101445.48
2018-04-17T20:17:18.893Z,101445.88
2018-04-17T20:19:48.214Z,101450.58
2018-04-17T20:22:17.525Z,101448.23
2018-04-17T20:24:46.846Z,101448.61
2018-04-17T20:27:16.191Z,101458.39
2018-04-17T20:29:46.270Z,101456.75
2018-04-17T20:32:15.638Z,101460.08
2018-04-17T20:34:44.945Z,101460.14
2018-04-17T20:37:14.265Z,101463.89
2018-04-17T20:39:44.546Z,101458.72
2018-04-17T20:42:14.645Z,101462.56
2018-04-17T20:44:43.967Z,101469.11
2018-04-17T20:47:14.085Z,101464.30
2018-04-17T20:49:44.166Z,101469.75
2018-04-17T20:52:13.513Z,101466.63
2018-04-17T20:54:43.634Z,101469.55
2018-04-17T20:57:13.748Z,101471.25
2018-04-17T20:59:43.890Z,101477.22
2018-04-17T21:02:13.219Z,101477.90
2018-04-17T21:04:42.560Z,101482.13
2018-04-17T21:07:11.877Z,101483.64
2018-04-17T21:09:42.008Z,101481.77
2018-04-17T21:12:12.963Z,101486.31
2018-04-17T21:14:42.316Z,101489.20
2018-04-17T21:17:11.666Z,101488.48
2018-04-17T21:19:40.973Z,101488.52
2018-04-17T21:22:10.289Z,101487.16
2018-04-17T21:24:39.648Z,101491.84
2018-04-17T21:27:08.962Z,101493.08
2018-04-17T21:29:39.092Z,101493.69
2018-04-17T21:32:08.431Z,101496.53
2018-04-17T21:34:37.792Z,101498.94
2018-04-17T21:37:07.901Z,101496.15
2018-04-17T21:39:37.986Z,101501.41
2018-04-17T21:42:07.305Z,101506.14
2018-04-17T21:44:36.638Z,101505.06
2018-04-17T21:47:06.740Z,101509.37
2018-04-17T21:49:36.059Z,101510.55
2018-04-17T21:52:06.185Z,101515.59
2018-04-17T21:54:36.265Z,101516.30
2018-04-17T21:57:05.617Z,101514.77
2018-04-17T21:59:34.955Z,101517.20
2018-04-17T22:02:04.317Z,101523.83
2018-04-17T22:04:34.461Z,101520.92
2018-04-17T22:07:03.823Z,101521.47
2018-04-17T22:09:33.157Z,101522.84
2018-04-17T22:12:02.495Z,101527.27
2018-04-17T22:14:31.878Z,101528.22
2018-04-17T22:17:01.206Z,101526.48
2018-04-17T22:19:30.555Z,101525.03
2018-04-17T22:22:00.692Z,101525.36
2018-04-17T22:24:30.058Z,101526.11
2018-04-17T22:26:59.418Z,101527.27
2018-04-17T22:29:28.749Z,101531.46
2018-04-17T22:31:58.106Z,101537.39
2018-04-17T22:34:27.439Z,101538.05
2018-04-17T22:36:56.760Z,101537.34
2018-04-17T22:39:26.126Z,101538.41
2018-04-17T22:41:55.470Z,101542.52
2018-04-17T22:44:24.814Z,101542.27
2018-04-17T22:46:54.174Z,101546.89
2018-04-17T22:49:23.517Z,101547.91
2018-04-17T22:51:53.610Z,101552.30
2018-04-17T22:54:22.959Z,101549.64
2018-04-17T22:56:52.291Z,101554.56
2018-04-17T22:59:21.608Z,101557.86
2018-04-17T23:01:50.961Z,101563.32
2018-04-17T23:04:20.298Z,101562.19
2018-04-17T23:06:49.630Z,101570.73
2018-04-17T23:09:18.981Z,101571.27
2018-04-17T23:11:48.334Z,101569.70
2018-04-17T23:14:17.666Z,101570.02
2018-04-17T23:16:47.978Z,101566.33
2018-04-17T23:19:18.079Z,101562.98
2018-04-17T23:21:47.411Z,101563.62
2018-04-17T23:24:17.539Z,101562.37
2018-04-17T23:26:47.630Z,101563.21
2018-04-17T23:29:16.973Z,101564.08
2018-04-17T23:31:46.298Z,101561.45
2018-04-17T23:34:15.622Z,101567.34
2018-04-17T23:36:44.972Z,101570.62
2018-04-17T23:39:14.310Z,101563.58
2018-04-17T23:41:44.428Z,101568.67
2018-04-17T23:44:13.747Z,101568.44
2018-04-17T23:46:43.144Z,101567.86
2018-04-17T23:49:12.484Z,101567.64
2018-04-17T23:51:41.801Z,101572.95
2018-04-17T23:54:11.903Z,101575.61
2018-04-17T23:56:41.262Z,101571.11
2018-04-17T23:59:10.591Z,101577.38
